^^
Station Historical Data
 
Daily Summary for November 22, 2017 Units:  English    Metric   Both
« Previous Day
Next Day »
Daily Weekly Monthly Yearly Custom
  Current: High: Low: Average:
Temperature: 47.5 °F 49.3 °F 44.8 °F 47.1 °F
Dew Point: 37.8 °F 47.5 °F 37.6 °F 43.5 °F
Humidity: 69% 95% 68% 88%
Wind Speed: 0.0mph 2.9mph 0.0mph 0.1mph
Wind Gust: 5.0mph 6.0mph - -
WindCalm - - West
Pressure: 30.09 in 30.09 in 30.06 in -
Precipitation: 0.00 in      
Historical Graphs
 
 
Tabular Data for November 22, 2017
Time Temperature Dew Point Pressure Wind Wind Speed Wind Gust Humidity Rainfall Rate (Hourly)
00:00 48.4 °F 46.2 °F 30.08 in Calm     92% 0.00 in
00:06 48.2 °F 46.0 °F 30.08 in Calm     92% 0.00 in
00:11 48.2 °F 46.0 °F 30.08 in Calm     92% 0.00 in
00:16 48.4 °F 46.4 °F 30.08 in Calm     93% 0.00 in
00:21 48.4 °F 46.4 °F 30.08 in Calm     93% 0.00 in
00:26 48.4 °F 46.4 °F 30.08 in Calm     93% 0.00 in
00:32 48.4 °F 46.4 °F 30.08 in Calm     93% 0.00 in
00:37 48.4 °F 46.4 °F 30.08 in Calm     93% 0.00 in
00:42 48.6 °F 46.6 °F 30.08 in Calm     93% 0.00 in
00:48 48.6 °F 46.6 °F 30.08 in Calm     93% 0.00 in
00:58 48.7 °F 46.8 °F 30.08 in Calm     93% 0.00 in
01:08 49.1 °F 47.5 °F 30.08 in Calm     94% 0.00 in
01:13 49.3 °F 47.3 °F 30.07 in Calm     93% 0.00 in
01:19 48.9 °F 46.9 °F 30.08 in Calm     93% 0.00 in
01:29 48.9 °F 46.9 °F 30.08 in Calm     93% 0.00 in
01:34 48.9 °F 46.9 °F 30.08 in Calm     93% 0.00 in
01:40 48.7 °F 46.8 °F 30.08 in Calm     93% 0.00 in
01:45 48.6 °F 46.6 °F 30.08 in Calm     93% 0.00 in
01:51 48.6 °F 46.6 °F 30.07 in Calm     93% 0.00 in
01:59 48.4 °F 46.4 °F 30.07 in Calm     93% 0.00 in
02:04 48.2 °F 46.2 °F 30.07 in Calm     93% 0.00 in
02:15 47.8 °F 45.9 °F 30.07 in Calm     93% 0.00 in
02:21 47.8 °F 45.9 °F 30.07 in Calm     93% 0.00 in
02:26 47.7 °F 45.7 °F 30.07 in Calm     93% 0.00 in
02:41 47.1 °F 45.1 °F 30.07 in Calm     93% 0.00 in
02:46 47.1 °F 45.1 °F 30.07 in Calm     93% 0.00 in
03:07 46.4 °F 44.4 °F 30.06 in Calm     93% 0.00 in
03:12 46.2 °F 44.2 °F 30.06 in Calm     93% 0.00 in
03:17 46.2 °F 44.6 °F 30.06 in Calm     94% 0.00 in
03:22 46.0 °F 44.4 °F 30.06 in Calm     94% 0.00 in
03:25 46.0 °F 44.4 °F 30.06 in Calm     94% 0.00 in
03:30 45.9 °F 44.2 °F 30.06 in Calm     94% 0.00 in
03:36 45.9 °F 44.2 °F 30.06 in Calm     94% 0.00 in
03:47 45.7 °F 44.1 °F 30.06 in Calm     94% 0.00 in
03:52 45.5 °F 43.9 °F 30.06 in Calm     94% 0.00 in
03:57 45.3 °F 43.7 °F 30.06 in Calm     94% 0.00 in
04:02 45.3 °F 43.7 °F 30.06 in Calm     94% 0.00 in
04:13 45.1 °F 43.5 °F 30.06 in Calm     94% 0.00 in
04:24 45.0 °F 43.3 °F 30.06 in Calm     94% 0.00 in
04:34 44.8 °F 43.2 °F 30.06 in Calm     94% 0.00 in
04:40 44.8 °F 43.2 °F 30.06 in Calm     94% 0.00 in
04:50 44.8 °F 43.5 °F 30.06 in Calm   1.0 mph 95% 0.00 in
04:55 44.8 °F 43.5 °F 30.07 in Calm     95% 0.00 in
05:01 45.0 °F 43.3 °F 30.06 in Calm   2.0 mph 94% 0.00 in
05:17 45.9 °F 41.9 °F 30.06 in Calm     86% 0.00 in
05:27 46.4 °F 41.2 °F 30.06 in Calm     82% 0.00 in
05:38 45.9 °F 40.1 °F 30.06 in Calm   2.0 mph 80% 0.00 in
05:44 45.9 °F 40.1 °F 30.06 in Calm     80% 0.00 in
05:49 45.9 °F 39.0 °F 30.06 in WNW 0.9 mph 4.0 mph 77% 0.00 in
05:54 46.6 °F 39.7 °F 30.07 in Calm     77% 0.00 in
05:59 46.9 °F 38.7 °F 30.07 in Calm     73% 0.00 in
06:05 46.9 °F 39.0 °F 30.07 in Calm     74% 0.00 in
06:10 46.9 °F 38.3 °F 30.07 in Calm   1.0 mph 72% 0.00 in
06:15 47.1 °F 38.1 °F 30.07 in Calm   1.0 mph 71% 0.00 in
06:27 46.8 °F 38.5 °F 30.07 in Calm     73% 0.00 in
06:42 47.1 °F 37.8 °F 30.08 in Calm   5.0 mph 70% 0.00 in
06:48 47.1 °F 38.1 °F 30.08 in NW 2.9 mph 4.0 mph 71% 0.00 in
06:53 47.3 °F 37.9 °F 30.08 in WNW 0.9 mph 3.0 mph 70% 0.00 in
06:58 47.5 °F 38.1 °F 30.08 in NNW 0.9 mph 4.0 mph 70% 0.00 in
07:08 47.7 °F 38.3 °F 30.09 in Calm   4.0 mph 70% 0.00 in
07:18 47.7 °F 37.6 °F 30.09 in SSE 0.9 mph 6.0 mph 68% 0.00 in
07:29 47.5 °F 37.8 °F 30.09 in Calm   5.0 mph 69% 0.00 in
Ellijay Weather
Compliments of Weather Underground - 1.25 mb